< < Back
Terminal Aerodrome Forecast


Current Version              Previous Versions:   1  2  3  4  5  6  7  8  9  

Terminal Aerodrome Forecast

975
FTUS42 KCAE 280906 AAA
TAFCAE
TAF AMD
KCAE 280906Z 2809/2906 VRB04KT P6SM SCT050
     FM281400 07008KT P6SM BKN040
     FM282300 04005KT P6SM VCSH BKN035
      TEMPO 2902/2906 SHRA OVC025=

Latest METAR

070
SAUS80 KWBC 281600 CCA
MTRCAE
METAR KCAE 281556Z VRB03KT 10SM BKN042 BKN049 OVC065 27/17 A3015 RMK AO2
SLP206 T02720172


USA.gov is the U.S. government's official web portal to all federal, state and local government web resources and services.